CMB858 Details

Departure: Diego Garcia (FJDG)
Arrival: Bahrain International Airport (OBBI)
Route: BUMMR L516 KITAL P570 ITURA M762 VAXAS M762 MIVEK P574 RUKOR N571 TUDIS P699 IMGUX ULBEK Y001 LABOV EMISA B457 DENVO DENVO1
Notes: USTRANSCOM CONTRACT FLIGHT


Current Weather Information
FJDG 232255Z 09005KT 9999 FEW018 FEW250 27/25 A2983 RMK SLP098 T02730253
OBBI 232330Z 26007KT CAVOK 31/19 Q1006 NOSIG